Time;durP1;ratioP1;P1;durP2;ratioP2;P2;SDS_P1;SDS_P2;PMS_P1;PMS_P2;Temp;Humidity;BMP_temperature;BMP_pressure;BME280_temperature;BME280_humidity;BME280_pressure;Samples;Min_cycle;Max_cycle;Signal;HPM_P1;HPM_P2
2023/08/04 00:02:12;;;;;;;4.85;2.00;;;;;;;16.36;100.00;100785.72;4987043;28;20057;-90
2023/08/04 00:04:37;;;;;;;5.20;2.22;;;;;;;16.42;100.00;100806.63;4989700;28;20049;-89
2023/08/04 00:07:03;;;;;;;5.38;2.00;;;;;;;16.43;100.00;100807.44;4987554;28;20027;-89
2023/08/04 00:09:28;;;;;;;7.18;2.10;;;;;;;16.40;100.00;100809.06;4984142;28;20504;-89
2023/08/04 00:11:54;;;;;;;4.07;2.38;;;;;;;16.43;100.00;100788.44;4985201;28;20050;-89
2023/08/04 00:14:19;;;;;;;3.42;1.83;;;;;;;16.52;100.00;100804.88;4991862;28;20058;-88
2023/08/04 00:16:44;;;;;;;3.80;1.92;;;;;;;16.54;100.00;100801.66;4987626;28;20056;-88
2023/08/04 00:19:10;;;;;;;4.93;2.03;;;;;;;16.50;100.00;100803.72;4994789;28;20034;-88
2023/08/04 00:21:35;;;;;;;5.65;2.05;;;;;;;16.54;100.00;100802.44;4991193;28;20058;-89
2023/08/04 00:24:00;;;;;;;3.63;2.15;;;;;;;16.38;100.00;100794.56;4992067;28;20388;-88
2023/08/04 00:26:26;;;;;;;5.05;2.00;;;;;;;16.40;100.00;100797.78;5000368;28;20032;-88
2023/08/04 00:28:52;;;;;;;4.97;1.50;;;;;;;16.41;100.00;100798.56;4987762;28;20399;-89
2023/08/04 00:31:17;;;;;;;2.58;2.00;;;;;;;16.42;100.00;100812.28;4985705;28;20122;-89
2023/08/04 00:33:43;;;;;;;7.40;1.98;;;;;;;16.32;100.00;100801.88;4988359;28;20466;-89
2023/08/04 00:36:08;;;;;;;4.22;1.90;;;;;;;16.38;100.00;100817.16;4977754;28;20034;-88
2023/08/04 00:38:33;;;;;;;4.15;2.00;;;;;;;16.36;100.00;100813.97;4987425;28;20041;-88
2023/08/04 00:40:59;;;;;;;6.30;2.22;;;;;;;16.20;100.00;100805.25;4987025;28;20041;-88
2023/08/04 00:43:24;;;;;;;3.17;1.80;;;;;;;16.10;100.00;100800.50;4983120;28;20474;-88
2023/08/04 00:45:50;;;;;;;5.35;2.00;;;;;;;16.09;100.00;100804.56;4975085;28;20461;-87
2023/08/04 00:48:16;;;;;;;7.18;2.05;;;;;;;16.17;100.00;100806.88;4976741;28;20054;-88
2023/08/04 00:50:45;;;;;;;7.07;2.28;;;;;;;16.24;100.00;100822.94;4991126;28;20056;-88
2023/08/04 00:53:11;;;;;;;4.13;2.55;;;;;;;16.15;100.00;100828.25;4982892;28;20018;-88
2023/08/04 00:55:37;;;;;;;5.30;2.33;;;;;;;16.11;100.00;100819.84;5000856;28;21659;-88
2023/08/04 00:58:02;;;;;;;9.18;2.42;;;;;;;15.91;100.00;100832.91;4983614;28;20030;-88
2023/08/04 01:00:28;;;;;;;8.20;1.92;;;;;;;15.80;100.00;100811.22;4984605;28;20520;-88
2023/08/04 01:02:53;;;;;;;7.50;2.03;;;;;;;15.98;100.00;100828.03;4986668;28;20031;-88
2023/08/04 01:05:19;;;;;;;4.10;1.55;;;;;;;15.97;100.00;100825.63;4982249;28;20069;-87
2023/08/04 01:07:56;;;;;;;4.78;1.85;;;;;;;15.98;100.00;100833.69;4989803;28;20037;-88
2023/08/04 01:10:25;;;;;;;2.78;1.70;;;;;;;15.71;100.00;100808.06;4983487;28;20359;-88
2023/08/04 01:13:04;;;;;;;4.22;1.30;;;;;;;15.81;100.00;100824.13;4984826;28;20043;-87
2023/08/04 01:15:30;;;;;;;4.95;2.00;;;;;;;15.89;100.00;100824.88;4981837;28;20048;-88
2023/08/04 01:17:57;;;;;;;3.47;1.23;;;;;;;15.98;100.00;100828.03;4982753;28;20038;-88
2023/08/04 01:20:24;;;;;;;4.75;1.27;;;;;;;15.96;100.00;100824.81;4989076;28;20176;-87
2023/08/04 01:22:50;;;;;;;2.53;1.23;;;;;;;15.89;100.00;100815.59;4986087;28;20100;-88
2023/08/04 01:25:16;;;;;;;3.70;1.38;;;;;;;15.85;100.00;100807.97;4985037;28;20525;-88
2023/08/04 01:27:52;;;;;;;1.63;1.10;;;;;;;15.93;100.00;100808.69;4982686;28;20062;-88
2023/08/04 01:30:23;;;;;;;2.78;0.93;;;;;;;15.97;100.00;100815.13;4986355;28;20029;-88
2023/08/04 01:32:48;;;;;;;3.97;1.10;;;;;;;15.98;100.00;100805.44;4987250;28;20343;-89
2023/08/04 01:35:15;;;;;;;3.40;0.75;;;;;;;16.01;100.00;100810.25;4987495;28;20030;-88
2023/08/04 01:37:43;;;;;;;2.45;1.13;;;;;;;15.91;100.00;100811.13;4988178;28;20616;-88
2023/08/04 01:40:09;;;;;;;1.65;0.90;;;;;;;15.98;100.00;100824.38;4992886;28;20026;-88
2023/08/04 01:42:35;;;;;;;4.57;0.95;;;;;;;15.87;100.00;100815.22;4979846;28;20125;-88
2023/08/04 01:45:00;;;;;;;3.17;1.15;;;;;;;15.85;100.00;100838.19;4988389;28;20118;-88
2023/08/04 01:47:25;;;;;;;1.65;1.35;;;;;;;15.78;100.00;100846.72;4984971;28;20336;-88
2023/08/04 01:49:51;;;;;;;3.88;0.93;;;;;;;15.87;100.00;100849.88;4989314;28;20059;-88
2023/08/04 01:52:16;;;;;;;0.98;0.88;;;;;;;16.00;100.00;100847.34;4974516;28;20019;-88
2023/08/04 01:54:42;;;;;;;4.22;0.80;;;;;;;15.84;100.00;100845.06;4977736;28;20034;-88
2023/08/04 01:57:07;;;;;;;6.50;0.90;;;;;;;15.93;100.00;100830.50;4972268;28;20403;-88
2023/08/04 01:59:33;;;;;;;1.67;0.70;;;;;;;16.11;100.00;100856.56;4972401;28;20107;-88
2023/08/04 02:01:58;;;;;;;1.60;1.13;;;;;;;16.14;100.00;100869.03;4986061;28;20030;-88
2023/08/04 02:04:24;;;;;;;2.88;1.00;;;;;;;15.94;100.00;100855.50;4982981;28;20383;-88
2023/08/04 02:06:49;;;;;;;1.33;0.68;;;;;;;16.14;100.00;100869.81;4983807;28;20032;-88
2023/08/04 02:09:14;;;;;;;1.15;0.80;;;;;;;16.11;100.00;100869.88;4987264;28;20061;-88
2023/08/04 02:11:41;;;;;;;0.93;0.65;;;;;;;15.96;100.00;100866.34;4987339;28;20402;-88
2023/08/04 02:14:06;;;;;;;2.33;1.50;;;;;;;15.98;100.00;100867.56;4986845;28;20042;-88
2023/08/04 02:16:32;;;;;;;2.80;1.35;;;;;;;15.96;100.00;100878.47;4986170;28;20038;-88
2023/08/04 02:19:05;;;;;;;1.85;1.02;;;;;;;15.91;100.00;100861.16;5003811;28;20501;-88
2023/08/04 02:21:31;;;;;;;1.45;1.05;;;;;;;16.11;100.00;100881.16;4980513;28;20103;-88
2023/08/04 02:23:56;;;;;;;1.25;0.95;;;;;;;15.96;100.00;100875.63;4981892;28;20403;-88
2023/08/04 02:26:22;;;;;;;5.75;1.13;;;;;;;15.92;100.00;100863.56;4978612;28;20038;-89
2023/08/04 02:28:49;;;;;;;2.28;0.90;;;;;;;16.04;100.00;100877.19;4984851;28;20109;-88
2023/08/04 02:31:17;;;;;;;2.65;1.10;;;;;;;15.90;100.00;100866.00;4975066;28;20037;-87
2023/08/04 02:33:42;;;;;;;3.63;0.80;;;;;;;16.09;100.00;100880.78;4983613;28;20530;-88
2023/08/04 02:36:08;;;;;;;2.45;1.42;;;;;;;16.07;100.00;100880.41;4984346;28;20095;-88
2023/08/04 02:38:33;;;;;;;1.60;1.23;;;;;;;16.12;100.00;100885.59;4976711;28;20029;-88
2023/08/04 02:41:04;;;;;;;2.00;1.17;;;;;;;16.06;100.00;100888.03;4990509;28;20368;-89
2023/08/04 02:43:30;;;;;;;2.78;1.13;;;;;;;16.06;100.00;100879.56;4983879;28;20785;-88
2023/08/04 02:45:56;;;;;;;2.28;1.10;;;;;;;16.07;100.00;100886.03;4983930;28;20640;-88
2023/08/04 02:48:21;;;;;;;1.40;0.93;;;;;;;16.14;100.00;100897.28;4991455;28;20119;-88
2023/08/04 02:50:47;;;;;;;2.45;0.85;;;;;;;16.16;100.00;100889.97;4986358;28;20407;-88
2023/08/04 02:53:15;;;;;;;2.67;1.15;;;;;;;15.95;100.00;100882.47;4986621;28;20080;-88
2023/08/04 02:55:41;;;;;;;1.88;0.82;;;;;;;16.01;100.00;100883.66;4984087;28;20115;-88
2023/08/04 02:58:06;;;;;;;3.38;1.00;;;;;;;16.11;100.00;100893.25;4982707;28;20086;-88
2023/08/04 03:00:34;;;;;;;1.67;1.30;;;;;;;15.95;100.00;100879.66;4974685;28;20038;-88
2023/08/04 03:03:00;;;;;;;2.45;1.13;;;;;;;15.97;100.00;100899.00;4985132;28;20661;-88
2023/08/04 03:05:25;;;;;;;1.42;1.08;;;;;;;16.05;100.00;100907.00;4975622;28;20069;-88
2023/08/04 03:07:51;;;;;;;2.25;1.20;;;;;;;15.98;100.00;100907.06;4981650;28;20022;-88
2023/08/04 03:10:16;;;;;;;1.95;1.08;;;;;;;15.96;100.00;100906.69;4979668;28;20584;-88
2023/08/04 03:12:41;;;;;;;2.50;1.45;;;;;;;15.82;100.00;100909.59;4984884;28;20088;-88
2023/08/04 03:15:07;;;;;;;2.53;1.30;;;;;;;15.88;100.00;100904.34;4986531;28;20129;-88
2023/08/04 03:17:33;;;;;;;2.22;1.00;;;;;;;15.83;100.00;100900.72;4978437;28;20037;-88
2023/08/04 03:19:58;;;;;;;1.73;0.70;;;;;;;15.90;100.00;100907.53;4980974;28;20711;-88
2023/08/04 03:22:23;;;;;;;2.03;1.35;;;;;;;15.88;100.00;100912.81;4984353;28;20420;-88
2023/08/04 03:24:49;;;;;;;2.90;1.30;;;;;;;15.96;100.00;100903.03;4985664;28;20128;-88
2023/08/04 03:27:14;;;;;;;1.63;1.00;;;;;;;15.81;100.00;100900.34;4983902;28;20117;-88
2023/08/04 03:29:40;;;;;;;3.90;1.38;;;;;;;15.99;100.00;100913.53;4981291;28;20447;-88
2023/08/04 03:32:05;;;;;;;3.03;1.60;;;;;;;15.85;100.00;100917.22;4985070;28;20040;-89
2023/08/04 03:34:31;;;;;;;5.20;1.40;;;;;;;15.80;100.00;100910.00;4979108;28;20466;-88
2023/08/04 03:36:56;;;;;;;1.77;1.40;;;;;;;15.83;100.00;100922.50;4970943;28;20035;-88
2023/08/04 03:39:21;;;;;;;4.32;1.55;;;;;;;15.95;100.00;100927.66;4988029;28;20192;-88
2023/08/04 03:41:47;;;;;;;3.42;1.35;;;;;;;15.94;100.00;100926.06;4974165;28;20359;-88
2023/08/04 03:44:12;;;;;;;3.72;1.30;;;;;;;15.99;100.00;100931.25;4982663;28;20110;-88
2023/08/04 03:46:38;;;;;;;2.65;1.42;;;;;;;15.93;100.00;100927.25;4984540;28;20026;-88
2023/08/04 03:49:03;;;;;;;3.78;1.30;;;;;;;15.91;100.00;100937.38;4984219;28;20026;-89
2023/08/04 03:51:28;;;;;;;2.45;1.90;;;;;;;15.89;100.00;100932.13;4989770;28;20022;-88
2023/08/04 03:53:54;;;;;;;4.20;2.03;;;;;;;15.96;100.00;100929.28;4986257;28;20019;-88
2023/08/04 03:56:19;;;;;;;4.18;1.40;;;;;;;15.87;100.00;100928.91;4991659;28;20018;-88
2023/08/04 03:58:45;;;;;;;3.00;1.63;;;;;;;15.87;100.00;100923.25;4984220;28;20283;-89
2023/08/04 04:01:10;;;;;;;2.72;2.17;;;;;;;15.87;100.00;100928.91;4982154;28;20030;-88
2023/08/04 04:03:35;;;;;;;4.85;1.75;;;;;;;15.97;100.00;100942.16;4978455;28;20031;-89
2023/08/04 04:06:01;;;;;;;6.10;1.92;;;;;;;15.86;100.00;100927.31;4985665;28;20122;-88
2023/08/04 04:08:26;;;;;;;3.08;1.73;;;;;;;15.97;100.00;100938.53;4987615;28;20037;-89
2023/08/04 04:10:52;;;;;;;3.58;1.42;;;;;;;15.91;100.00;100926.06;4987103;28;20034;-89
2023/08/04 04:13:17;;;;;;;4.32;1.73;;;;;;;15.99;100.00;100942.53;4989337;28;20076;-88
2023/08/04 04:15:42;;;;;;;8.23;2.17;;;;;;;15.86;100.00;100938.59;4969812;28;20033;-88
2023/08/04 04:18:08;;;;;;;3.65;1.67;;;;;;;15.86;100.00;100944.25;5000143;28;20123;-88
2023/08/04 04:20:33;;;;;;;5.78;2.03;;;;;;;15.91;100.00;100946.63;4991782;28;20129;-88
2023/08/04 04:22:58;;;;;;;2.85;1.63;;;;;;;15.89;100.00;100939.81;4988207;28;20089;-88
2023/08/04 04:25:24;;;;;;;3.22;1.85;;;;;;;15.89;100.00;100951.88;4989570;28;20109;-89
2023/08/04 04:27:49;;;;;;;5.32;2.80;;;;;;;15.87;100.00;100950.69;4988542;28;20026;-88
2023/08/04 04:30:15;;;;;;;4.00;2.05;;;;;;;15.93;100.00;100960.34;4989505;28;20032;-88
2023/08/04 04:32:40;;;;;;;5.93;2.17;;;;;;;15.87;100.00;100951.50;4989814;28;20632;-89
2023/08/04 04:35:06;;;;;;;2.75;1.90;;;;;;;15.92;100.00;100962.38;4989825;28;20030;-88
2023/08/04 04:37:31;;;;;;;2.10;1.55;;;;;;;16.00;100.00;100963.09;4991081;28;20026;-88
2023/08/04 04:39:56;;;;;;;2.42;1.70;;;;;;;16.03;100.00;100977.22;4985667;28;20486;-88
2023/08/04 04:42:22;;;;;;;7.30;1.80;;;;;;;16.02;100.00;100975.63;4990847;28;20029;-88
2023/08/04 04:44:47;;;;;;;4.65;2.17;;;;;;;16.10;100.00;100976.34;4989750;28;20133;-88
2023/08/04 04:47:13;;;;;;;3.65;1.83;;;;;;;16.08;100.00;100963.88;4996784;28;20026;-88
2023/08/04 04:49:38;;;;;;;3.85;1.50;;;;;;;16.22;100.00;100983.53;4987780;28;20038;-88
2023/08/04 04:52:05;;;;;;;3.17;1.67;;;;;;;16.18;100.00;100977.13;4989369;28;20023;-88
2023/08/04 04:54:30;;;;;;;2.63;1.50;;;;;;;16.18;100.00;100979.94;4990049;28;20026;-88
2023/08/04 04:56:56;;;;;;;2.70;1.88;;;;;;;16.15;100.00;100989.22;5011120;28;20480;-88
2023/08/04 04:59:21;;;;;;;3.88;1.88;;;;;;;16.13;100.00;100978.38;4994057;28;20030;-88
2023/08/04 05:01:47;;;;;;;3.78;1.52;;;;;;;16.14;100.00;100979.16;4987649;28;20468;-88
2023/08/04 05:04:12;;;;;;;6.22;1.75;;;;;;;16.10;100.00;100987.66;4990011;28;20030;-87
2023/08/04 05:06:38;;;;;;;4.72;2.20;;;;;;;16.06;100.00;100992.50;4989439;28;20030;-86
2023/08/04 05:09:03;;;;;;;4.85;2.20;;;;;;;15.88;100.00;100977.72;4988786;28;20022;-87
2023/08/04 05:11:28;;;;;;;4.03;2.25;;;;;;;16.08;100.00;101000.56;4993486;28;20034;-86
2023/08/04 05:13:54;;;;;;;3.60;2.20;;;;;;;16.04;100.00;101000.59;4984598;28;20446;-87
2023/08/04 05:16:20;;;;;;;5.95;2.13;;;;;;;15.92;100.00;101004.72;4982459;28;20490;-87
2023/08/04 05:18:45;;;;;;;5.28;1.92;;;;;;;15.94;100.00;101001.44;5002217;28;20089;-87
2023/08/04 05:21:13;;;;;;;5.45;2.22;;;;;;;15.97;100.00;100990.16;4989353;28;20032;-87
2023/08/04 05:23:39;;;;;;;8.13;1.80;;;;;;;16.19;100.00;101012.59;4991578;28;20507;-87
2023/08/04 05:26:04;;;;;;;3.30;1.70;;;;;;;16.11;100.00;101003.38;4988546;28;20116;-87
2023/08/04 05:28:32;;;;;;;5.22;2.42;;;;;;;16.05;100.00;101000.19;4986070;28;20022;-87
2023/08/04 05:31:02;;;;;;;3.38;1.70;;;;;;;16.16;100.00;101013.44;4991084;28;20510;-87
2023/08/04 05:33:29;;;;;;;5.10;2.28;;;;;;;16.02;100.00;101009.50;4990043;28;20037;-87
2023/08/04 05:35:54;;;;;;;3.30;2.22;;;;;;;15.98;100.00;101013.53;4988500;28;20057;-87
2023/08/04 05:38:20;;;;;;;3.00;1.90;;;;;;;16.10;100.00;101006.63;4987583;28;20483;-87
2023/08/04 05:40:47;;;;;;;2.85;1.70;;;;;;;16.16;100.00;101021.91;4984779;28;20037;-87
2023/08/04 05:43:13;;;;;;;5.18;2.03;;;;;;;16.03;100.00;101015.94;4979671;28;20030;-87
2023/08/04 05:45:46;;;;;;;3.08;1.63;;;;;;;16.12;100.00;101024.75;4987174;28;20050;-87
2023/08/04 05:48:12;;;;;;;4.47;2.45;;;;;;;16.15;100.00;101038.06;4998463;28;20411;-87
2023/08/04 05:50:38;;;;;;;1.70;1.33;;;;;;;16.16;100.00;101038.84;4977997;28;20031;-87
2023/08/04 05:53:04;;;;;;;5.13;2.58;;;;;;;16.14;100.00;101030.78;4985142;28;20057;-87
2023/08/04 05:55:29;;;;;;;5.28;2.70;;;;;;;16.04;100.00;101035.28;4986515;28;20018;-88
2023/08/04 05:57:56;;;;;;;3.20;1.80;;;;;;;16.16;100.00;101028.34;4985724;28;20504;-87
2023/08/04 06:00:22;;;;;;;7.25;2.03;;;;;;;16.37;100.00;101040.72;4979226;28;20632;-87
2023/08/04 06:02:47;;;;;;;5.07;2.08;;;;;;;16.40;100.00;101046.38;4987376;28;20031;-87
2023/08/04 06:05:13;;;;;;;4.03;2.60;;;;;;;16.09;100.00;101033.25;4989127;28;20510;-88
2023/08/04 06:07:39;;;;;;;5.05;1.90;;;;;;;16.22;100.00;101040.03;4988018;28;20022;-88
2023/08/04 06:10:05;;;;;;;5.95;2.15;;;;;;;16.42;100.00;101055.22;4989388;28;20057;-88
2023/08/04 06:12:31;;;;;;;4.05;2.03;;;;;;;16.45;100.00;101059.25;4987734;28;20053;-88
2023/08/04 06:14:56;;;;;;;2.92;1.70;;;;;;;16.24;100.00;101044.03;4990966;28;20050;-88
2023/08/04 06:17:22;;;;;;;4.18;1.77;;;;;;;16.37;100.00;101069.78;4987780;28;20026;-88
2023/08/04 06:19:47;;;;;;;3.53;1.40;;;;;;;16.34;100.00;101064.16;4988749;28;20026;-88
2023/08/04 06:22:15;;;;;;;4.75;1.80;;;;;;;16.37;100.00;101064.13;4989260;28;20042;-88
2023/08/04 06:24:41;;;;;;;1.95;1.35;;;;;;;16.45;100.00;101067.72;4989702;28;20108;-88
2023/08/04 06:27:07;;;;;;;5.03;2.10;;;;;;;16.28;100.00;101057.34;4988898;28;20114;-88
2023/08/04 06:29:33;;;;;;;2.60;1.50;;;;;;;16.37;100.00;101064.13;4985080;28;20333;-87
2023/08/04 06:31:58;;;;;;;4.50;1.88;;;;;;;16.38;100.00;101074.22;4984764;28;20073;-88
2023/08/04 06:34:24;;;;;;;2.92;1.90;;;;;;;16.37;100.00;101080.28;4986866;28;20506;-88
2023/08/04 06:36:49;;;;;;;3.70;1.63;;;;;;;16.45;100.00;101070.53;4987550;28;20026;-88
2023/08/04 06:39:15;;;;;;;5.72;1.58;;;;;;;16.45;100.00;101082.66;4987554;28;20494;-88
2023/08/04 06:41:41;;;;;;;4.10;1.77;;;;;;;16.47;100.00;101076.59;4987522;28;20030;-88
2023/08/04 06:44:08;;;;;;;4.18;2.30;;;;;;;16.50;100.00;101084.22;4990594;28;20416;-88
2023/08/04 06:46:33;;;;;;;4.15;2.13;;;;;;;16.57;100.00;101072.88;4988561;28;20057;-88
2023/08/04 06:48:58;;;;;;;2.55;1.90;;;;;;;16.78;100.00;101090.88;4987581;28;20482;-88
2023/08/04 06:51:24;;;;;;;4.45;2.00;;;;;;;16.64;100.00;101095.44;4980041;28;20048;-88
2023/08/04 06:53:49;;;;;;;2.38;1.30;;;;;;;16.72;100.00;101082.06;4979726;28;20502;-88
2023/08/04 06:56:14;;;;;;;5.03;1.42;;;;;;;16.72;100.00;101075.59;4997023;28;20503;-88
2023/08/04 06:58:40;;;;;;;2.22;1.23;;;;;;;16.74;100.00;101099.41;4976746;28;20022;-88
2023/08/04 07:01:05;;;;;;;2.50;1.25;;;;;;;16.60;100.00;101088.19;4970778;28;20034;-84
2023/08/04 07:03:30;;;;;;;2.42;1.65;;;;;;;16.52;100.00;101107.22;4976832;28;20030;-84
2023/08/04 07:05:56;;;;;;;3.90;1.75;;;;;;;16.25;100.00;101121.91;4973965;28;20491;-84
2023/08/04 07:08:21;;;;;;;4.47;1.60;;;;;;;16.30;100.00;101125.53;4981707;28;20019;-84
2023/08/04 07:10:47;;;;;;;3.33;1.40;;;;;;;16.35;100.00;101123.06;4981296;28;20088;-84
2023/08/04 07:13:12;;;;;;;3.60;1.70;;;;;;;16.28;100.00;101133.63;4976185;28;20043;-84
2023/08/04 07:15:38;;;;;;;2.38;1.40;;;;;;;16.19;100.00;101125.56;4980589;28;20173;-84
2023/08/04 07:18:03;;;;;;;4.72;1.77;;;;;;;16.16;100.00;101126.41;4976513;28;20106;-84
2023/08/04 07:20:31;;;;;;;2.30;1.15;;;;;;;16.26;100.00;101128.38;4999103;28;20369;-85
2023/08/04 07:22:56;;;;;;;3.15;1.30;;;;;;;16.16;100.00;101126.41;4989870;28;20022;-84
2023/08/04 07:25:22;;;;;;;2.88;1.40;;;;;;;16.32;100.00;101134.38;4986889;28;20092;-84
2023/08/04 07:27:47;;;;;;;1.77;1.25;;;;;;;16.19;100.00;101119.91;4985925;28;20084;-85
2023/08/04 07:30:13;;;;;;;1.88;1.40;;;;;;;16.04;100.00;101131.28;4982292;28;20129;-85
2023/08/04 07:32:39;;;;;;;2.50;1.10;;;;;;;16.00;100.00;101129.69;4985170;28;20094;-85
2023/08/04 07:35:05;;;;;;;1.83;1.17;;;;;;;16.27;100.00;101127.13;4974546;28;20027;-85
2023/08/04 07:37:31;;;;;;;2.85;1.55;;;;;;;16.45;100.00;101130.69;4983950;28;20469;-85
2023/08/04 07:39:56;;;;;;;3.63;1.60;;;;;;;16.44;100.00;101136.72;4989050;28;20113;-86
2023/08/04 07:42:21;;;;;;;3.30;1.35;;;;;;;16.23;100.00;101135.66;4977985;28;20146;-85
2023/08/04 07:44:47;;;;;;;3.88;1.73;;;;;;;16.28;100.00;101134.41;4977896;28;20061;-85
2023/08/04 07:47:12;;;;;;;5.05;1.70;;;;;;;16.39;100.00;101118.19;4983882;28;20472;-85
2023/08/04 07:49:37;;;;;;;3.90;1.30;;;;;;;16.38;100.00;101136.38;4973802;28;20189;-85
2023/08/04 07:52:03;;;;;;;3.97;1.75;;;;;;;16.33;100.00;101128.31;4977167;28;20076;-85
2023/08/04 07:54:29;;;;;;;2.38;1.40;;;;;;;16.59;100.00;101132.63;4973902;28;20472;-85
2023/08/04 07:56:54;;;;;;;2.92;1.50;;;;;;;16.26;100.00;101126.34;4979380;28;20041;-85
2023/08/04 07:59:19;;;;;;;3.10;1.63;;;;;;;16.57;100.00;101145.53;4974718;28;20396;-85
2023/08/04 08:01:45;;;;;;;6.78;2.85;;;;;;;16.72;100.00;101149.91;4985399;28;20027;-85
2023/08/04 08:04:10;;;;;;;5.28;1.50;;;;;;;16.65;100.00;101152.75;4987097;28;20100;-86
2023/08/04 08:06:36;;;;;;;3.25;2.05;;;;;;;16.69;100.00;101159.19;4979247;28;20128;-85
2023/08/04 08:09:02;;;;;;;1.85;1.40;;;;;;;16.80;100.00;101159.97;4985924;28;20041;-86
2023/08/04 08:11:28;;;;;;;2.90;1.50;;;;;;;16.81;100.00;101153.09;4986870;28;20026;-86
2023/08/04 08:13:53;;;;;;;1.77;1.30;;;;;;;16.94;100.00;101172.41;4991250;28;20050;-85
2023/08/04 08:16:18;;;;;;;2.95;1.67;;;;;;;16.91;100.00;101150.59;4975993;28;20026;-83
2023/08/04 08:18:44;;;;;;;1.63;1.17;;;;;;;16.92;100.00;101161.50;4989677;28;20031;-83
2023/08/04 08:21:10;;;;;;;4.28;1.33;;;;;;;17.16;100.00;101175.84;4983069;28;20039;-83
2023/08/04 08:23:36;;;;;;;3.10;1.65;;;;;;;17.40;100.00;101174.03;4975144;28;20407;-83
2023/08/04 08:26:03;;;;;;;1.80;1.38;;;;;;;17.40;100.00;101174.03;4978108;28;20033;-83
2023/08/04 08:28:28;;;;;;;2.88;1.50;;;;;;;17.24;100.00;101178.22;4973165;28;20557;-83
2023/08/04 08:30:54;;;;;;;2.25;1.10;;;;;;;17.18;100.00;101177.06;4985187;28;20037;-83
2023/08/04 08:33:19;;;;;;;1.30;1.02;;;;;;;17.15;100.00;101168.59;4972822;28;20101;-83
2023/08/04 08:35:44;;;;;;;3.95;1.42;;;;;;;17.23;100.00;101176.59;4978129;28;20057;-83
2023/08/04 08:38:11;;;;;;;2.13;1.27;;;;;;;17.26;100.00;101172.13;4986936;28;20101;-83
2023/08/04 08:40:36;;;;;;;3.20;1.77;;;;;;;17.51;100.00;101186.06;4982766;28;20022;-83
2023/08/04 08:43:02;;;;;;;1.52;1.00;;;;;;;17.53;100.00;101185.66;4990680;28;20053;-83
2023/08/04 08:45:28;;;;;;;3.65;1.35;;;;;;;17.63;100.00;101187.56;4988201;28;20050;-84
2023/08/04 08:47:56;;;;;;;2.65;1.67;;;;;;;17.61;100.00;101185.16;4999023;28;20062;-83
2023/08/04 08:50:26;;;;;;;2.15;1.40;;;;;;;17.47;100.00;101166.28;4976903;28;20026;-84
2023/08/04 08:53:02;;;;;;;4.03;1.38;;;;;;;17.61;100.00;101193.66;4975528;28;20376;-83
2023/08/04 08:55:28;;;;;;;2.28;1.25;;;;;;;17.45;100.00;101191.34;4989044;28;20018;-84
2023/08/04 08:57:56;;;;;;;3.20;1.60;;;;;;;17.37;100.00;101186.19;4983941;28;20061;-84
2023/08/04 09:00:22;;;;;;;2.10;1.60;;;;;;;17.23;100.00;101196.41;4977189;28;20104;-81
2023/08/04 09:02:47;;;;;;;1.83;0.95;;;;;;;17.16;100.00;101199.31;4978901;28;20031;-81
2023/08/04 09:05:14;;;;;;;3.20;1.65;;;;;;;17.17;100.00;101212.22;4976956;28;20026;-81
2023/08/04 09:07:39;;;;;;;4.18;1.65;;;;;;;16.94;100.00;101203.50;4980862;28;20501;-81
2023/08/04 09:10:07;;;;;;;3.47;1.27;;;;;;;17.17;100.00;101222.72;4983220;28;20027;-82
2023/08/04 09:12:32;;;;;;;1.48;1.15;;;;;;;17.21;100.00;101210.16;4977219;28;20027;-84
2023/08/04 09:14:58;;;;;;;2.60;1.42;;;;;;;17.35;100.00;101209.25;4978034;28;20057;-83
2023/08/04 09:17:39;;;;;;;2.97;1.65;;;;;;;17.48;100.00;101223.69;4985928;28;20031;-83
2023/08/04 09:20:06;;;;;;;1.58;1.13;;;;;;;17.26;100.00;101218.19;4989728;28;20384;-83
2023/08/04 09:22:37;;;;;;;2.47;1.38;;;;;;;17.37;100.00;101214.47;4989771;28;20380;-82
2023/08/04 09:25:03;;;;;;;1.85;1.00;;;;;;;17.27;100.00;101205.66;4981835;28;20125;-82
2023/08/04 09:27:38;;;;;;;2.33;1.42;;;;;;;17.45;100.00;101221.69;4988886;28;20464;-82
2023/08/04 09:30:06;;;;;;;2.20;1.13;;;;;;;17.58;100.00;101221.97;4988784;28;20034;-83
2023/08/04 09:32:34;;;;;;;1.73;1.20;;;;;;;17.49;100.00;101222.47;4985259;28;20454;-82
2023/08/04 09:35:05;;;;;;;3.42;1.50;;;;;;;17.57;100.00;101228.88;4989634;28;20049;-83
2023/08/04 09:37:32;;;;;;;3.50;1.42;;;;;;;17.52;100.00;101237.78;4993376;28;20030;-83
2023/08/04 09:39:58;;;;;;;3.53;1.40;;;;;;;17.71;100.00;101236.41;4988963;28;20018;-83
2023/08/04 09:42:23;;;;;;;2.33;1.27;;;;;;;17.71;100.00;101234.41;4988124;28;20133;-82
2023/08/04 09:44:51;;;;;;;3.75;1.90;;;;;;;17.64;100.00;101234.47;4989196;28;20121;-83
2023/08/04 09:47:17;;;;;;;7.00;1.83;;;;;;;17.47;100.00;101233.41;4989758;28;20111;-83
2023/08/04 09:49:42;;;;;;;2.67;1.25;;;;;;;17.53;100.00;101236.59;4989478;28;20034;-83
2023/08/04 09:52:07;;;;;;;2.78;1.90;;;;;;;17.54;100.00;101236.19;4982920;28;20034;-83
2023/08/04 09:54:33;;;;;;;4.50;1.65;;;;;;;17.82;100.00;101235.13;4995461;28;20030;-83
2023/08/04 09:56:58;;;;;;;4.07;1.67;;;;;;;17.84;100.00;101237.56;4981870;28;20041;-83
2023/08/04 09:59:24;;;;;;;3.92;2.95;;;;;;;17.73;100.00;101231.97;4989065;28;20030;-83
2023/08/04 10:01:51;;;;;;;3.15;2.00;;;;;;;17.54;100.00;101236.19;4987699;28;20026;-83
2023/08/04 10:04:18;;;;;;;2.75;1.55;;;;;;;17.68;100.00;101241.69;4988923;28;20062;-83
2023/08/04 10:06:45;;;;;;;4.20;1.70;;;;;;;17.85;100.00;101241.97;4989179;28;20034;-83
2023/08/04 10:09:12;;;;;;;3.50;1.67;;;;;;;18.03;100.00;101236.94;5001878;28;20041;-84
2023/08/04 10:11:37;;;;;;;2.83;1.73;;;;;;;18.16;100.00;101236.41;4989018;28;20077;-84
2023/08/04 10:14:04;;;;;;;5.32;2.60;;;;;;;18.09;100.00;101228.78;4983568;28;20592;-83
2023/08/04 10:16:33;;;;;;;6.32;2.00;;;;;;;18.06;100.00;101219.09;4985593;28;20018;-83
2023/08/04 10:19:04;;;;;;;3.70;2.75;;;;;;;17.98;100.00;101231.75;4980589;28;20018;-84
2023/08/04 10:21:39;;;;;;;9.68;1.88;;;;;;;17.95;100.00;101232.56;4984576;28;20096;-84
2023/08/04 10:24:06;;;;;;;3.75;1.52;;;;;;;17.86;100.00;101218.13;4980885;28;20448;-83
2023/08/04 10:26:44;;;;;;;3.20;1.73;;;;;;;17.84;100.00;101244.00;4971206;28;20154;-84
2023/08/04 10:29:10;;;;;;;4.55;1.63;;;;;;;18.15;100.00;101257.44;4999415;28;20497;-84
2023/08/04 10:31:41;;;;;;;6.47;2.42;;;;;;;18.06;100.00;101250.25;4988233;28;20161;-84
2023/08/04 10:34:31;;;;;;;3.47;1.52;;;;;;;18.05;100.00;101248.66;4989607;28;20025;-84
2023/08/04 10:37:11;;;;;;;5.03;1.67;;;;;;;18.10;100.00;101249.44;4987435;28;20125;-84
2023/08/04 10:39:57;;;;;;;3.92;1.70;;;;;;;18.16;100.00;101242.06;4988129;28;20048;-84
2023/08/04 10:42:30;;;;;;;3.45;1.60;;;;;;;18.33;100.00;101251.59;5000462;28;20030;-84
2023/08/04 10:45:03;;;;;;;4.22;1.50;;;;;;;18.45;100.00;101249.00;4985510;28;20041;-84
2023/08/04 10:47:39;;;;;;;5.53;2.05;;;;;;;18.56;100.00;101248.88;4987437;28;20052;-84
2023/08/04 10:50:08;;;;;;;5.88;2.47;;;;;;;18.80;100.00;101254.66;4988225;28;20030;-84
2023/08/04 10:52:34;;;;;;;3.47;1.50;;;;;;;18.81;100.00;101254.25;4981001;28;20018;-84
2023/08/04 10:55:01;;;;;;;2.92;1.42;;;;;;;18.87;100.00;101255.38;4988111;28;20036;-84
2023/08/04 10:57:31;;;;;;;4.10;2.05;;;;;;;18.73;100.00;101247.03;4986072;28;20378;-84
2023/08/04 10:59:57;;;;;;;3.97;1.95;;;;;;;18.84;100.00;101267.56;4985287;28;20037;-84
2023/08/04 11:02:24;;;;;;;3.53;1.88;;;;;;;18.93;100.00;101271.91;4987125;28;20031;-84
2023/08/04 11:04:51;;;;;;;4.97;2.00;;;;;;;18.98;100.00;101271.47;4987375;28;20113;-84
2023/08/04 11:07:18;;;;;;;7.32;1.85;;;;;;;19.26;100.00;101270.22;4985586;28;20019;-84
2023/08/04 11:09:48;;;;;;;7.40;2.53;;;;;;;19.13;100.00;101275.69;5003264;28;20030;-84
2023/08/04 11:12:14;;;;;;;5.28;1.70;;;;;;;18.47;100.00;101272.06;4997108;28;20018;-84
2023/08/04 11:14:40;;;;;;;4.80;1.70;;;;;;;18.14;100.00;101281.34;4984264;28;20501;-81